sensor_id;sensor_type;location;lat;lon;timestamp;pressure;altitude;pressure_sealevel;temperature;humidity
65832;BME280;52593;42.648;23.332;2023-05-17T00:01:47;93957.41;;;12.51;100.00
65832;BME280;52593;42.648;23.332;2023-05-17T00:04:12;93959.50;;;12.42;100.00
65832;BME280;52593;42.648;23.332;2023-05-17T00:06:38;93970.00;;;12.37;100.00
65832;BME280;52593;42.648;23.332;2023-05-17T00:09:03;93969.38;;;12.42;100.00
65832;BME280;52593;42.648;23.332;2023-05-17T00:11:28;93958.66;;;12.42;100.00
65832;BME280;52593;42.648;23.332;2023-05-17T00:13:54;93963.81;;;12.37;100.00
65832;BME280;52593;42.648;23.332;2023-05-17T00:16:19;93959.91;;;12.32;100.00
65832;BME280;52593;42.648;23.332;2023-05-17T00:18:44;93958.25;;;12.25;100.00
65832;BME280;52593;42.648;23.332;2023-05-17T00:21:10;93954.59;;;12.19;100.00
65832;BME280;52593;42.648;23.332;2023-05-17T00:23:35;93952.31;;;12.16;100.00
65832;BME280;52593;42.648;23.332;2023-05-17T00:26:01;93952.31;;;12.16;100.00
65832;BME280;52593;42.648;23.332;2023-05-17T00:28:26;93950.25;;;12.11;100.00
65832;BME280;52593;42.648;23.332;2023-05-17T00:30:51;93961.78;;;12.25;100.00
65832;BME280;52593;42.648;23.332;2023-05-17T00:33:17;93960.56;;;12.21;100.00
65832;BME280;52593;42.648;23.332;2023-05-17T00:35:43;93957.03;;;12.14;100.00
65832;BME280;52593;42.648;23.332;2023-05-17T00:38:08;93954.78;;;12.04;100.00
65832;BME280;52593;42.648;23.332;2023-05-17T00:40:33;93958.09;;;12.00;100.00
65832;BME280;52593;42.648;23.332;2023-05-17T00:42:59;93972.72;;;11.97;100.00
65832;BME280;52593;42.648;23.332;2023-05-17T00:45:24;93967.78;;;11.94;100.00
65832;BME280;52593;42.648;23.332;2023-05-17T00:47:49;93963.84;;;11.90;100.00
65832;BME280;52593;42.648;23.332;2023-05-17T00:50:15;93967.16;;;11.85;100.00
65832;BME280;52593;42.648;23.332;2023-05-17T00:52:40;93965.28;;;11.86;100.00
65832;BME280;52593;42.648;23.332;2023-05-17T00:55:06;93972.91;;;11.89;100.00
65832;BME280;52593;42.648;23.332;2023-05-17T00:57:31;93974.16;;;11.80;100.00
65832;BME280;52593;42.648;23.332;2023-05-17T00:59:57;93969.41;;;11.75;100.00
65832;BME280;52593;42.648;23.332;2023-05-17T01:02:23;93975.19;;;11.85;100.00
65832;BME280;52593;42.648;23.332;2023-05-17T01:04:49;93973.72;;;11.83;100.00
65832;BME280;52593;42.648;23.332;2023-05-17T01:07:15;93970.81;;;11.71;100.00
65832;BME280;52593;42.648;23.332;2023-05-17T01:09:41;93962.78;;;11.71;100.00
65832;BME280;52593;42.648;23.332;2023-05-17T01:12:21;93966.69;;;11.68;100.00
65832;BME280;52593;42.648;23.332;2023-05-17T01:17:40;93958.66;;;11.62;100.00
65832;BME280;52593;42.648;23.332;2023-05-17T01:20:15;93963.81;;;11.56;100.00
65832;BME280;52593;42.648;23.332;2023-05-17T01:27:58;93969.75;;;11.45;100.00
65832;BME280;52593;42.648;23.332;2023-05-17T01:30:25;93967.88;;;11.39;100.00
65832;BME280;52593;42.648;23.332;2023-05-17T01:32:54;93965.84;;;11.41;100.00
65832;BME280;52593;42.648;23.332;2023-05-17T01:35:21;93968.94;;;11.38;100.00
65832;BME280;52593;42.648;23.332;2023-05-17T01:37:47;93959.03;;;11.32;100.00
65832;BME280;52593;42.648;23.332;2023-05-17T01:40:12;93954.09;;;11.29;100.00
65832;BME280;52593;42.648;23.332;2023-05-17T01:42:40;93963.13;;;11.28;100.00
65832;BME280;52593;42.648;23.332;2023-05-17T01:45:33;93959.84;;;11.26;100.00
65832;BME280;52593;42.648;23.332;2023-05-17T01:48:18;93968.47;;;11.21;100.00
65832;BME280;52593;42.648;23.332;2023-05-17T01:50:47;93962.09;;;11.22;100.00
65832;BME280;52593;42.648;23.332;2023-05-17T01:53:41;93957.16;;;11.32;100.00
65832;BME280;52593;42.648;23.332;2023-05-17T01:56:15;93951.81;;;11.32;100.00
65832;BME280;52593;42.648;23.332;2023-05-17T01:58:47;93955.72;;;11.23;100.00
65832;BME280;52593;42.648;23.332;2023-05-17T02:01:17;93949.09;;;11.19;100.00
65832;BME280;52593;42.648;23.332;2023-05-17T02:03:42;93956.06;;;11.13;100.00
65832;BME280;52593;42.648;23.332;2023-05-17T02:06:08;93952.97;;;11.10;100.00
65832;BME280;52593;42.648;23.332;2023-05-17T02:08:33;93950.50;;;11.08;100.00
65832;BME280;52593;42.648;23.332;2023-05-17T02:10:59;93962.88;;;11.16;100.00
65832;BME280;52593;42.648;23.332;2023-05-17T02:13:24;93958.13;;;11.11;100.00
65832;BME280;52593;42.648;23.332;2023-05-17T02:15:49;93950.09;;;11.04;100.00
65832;BME280;52593;42.648;23.332;2023-05-17T02:18:15;93949.44;;;11.02;100.00
65832;BME280;52593;42.648;23.332;2023-05-17T02:20:40;93953.13;;;10.95;100.00
65832;BME280;52593;42.648;23.332;2023-05-17T02:23:06;93948.19;;;10.92;100.00
65832;BME280;52593;42.648;23.332;2023-05-17T02:25:31;93946.56;;;10.97;100.00
65832;BME280;52593;42.648;23.332;2023-05-17T02:27:56;93952.31;;;10.87;100.00
65832;BME280;52593;42.648;23.332;2023-05-17T02:30:22;93946.09;;;10.80;100.00
65832;BME280;52593;42.648;23.332;2023-05-17T02:32:50;93952.91;;;10.83;100.00
65832;BME280;52593;42.648;23.332;2023-05-17T02:35:16;93949.81;;;10.86;100.00
65832;BME280;52593;42.648;23.332;2023-05-17T02:37:41;93952.84;;;10.76;100.00
65832;BME280;52593;42.648;23.332;2023-05-17T02:40:07;93951.41;;;10.74;100.00
65832;BME280;52593;42.648;23.332;2023-05-17T02:42:34;93954.66;;;10.62;100.00
65832;BME280;52593;42.648;23.332;2023-05-17T02:45:00;93959.38;;;10.60;100.00
65832;BME280;52593;42.648;23.332;2023-05-17T02:47:25;93963.25;;;10.58;100.00
65832;BME280;52593;42.648;23.332;2023-05-17T02:49:51;93958.91;;;10.50;100.00
65832;BME280;52593;42.648;23.332;2023-05-17T02:52:16;93975.16;;;10.48;100.00
65832;BME280;52593;42.648;23.332;2023-05-17T02:54:42;93967.53;;;10.45;100.00
65832;BME280;52593;42.648;23.332;2023-05-17T02:57:10;93977.63;;;10.50;100.00
65832;BME280;52593;42.648;23.332;2023-05-17T02:59:36;93977.00;;;10.48;100.00
65832;BME280;52593;42.648;23.332;2023-05-17T03:02:01;93990.59;;;10.46;100.00
65832;BME280;52593;42.648;23.332;2023-05-17T03:04:27;93994.25;;;10.39;100.00
65832;BME280;52593;42.648;23.332;2023-05-17T03:06:52;93993.59;;;10.37;100.00
65832;BME280;52593;42.648;23.332;2023-05-17T03:09:17;93991.97;;;10.35;100.00
65832;BME280;52593;42.648;23.332;2023-05-17T03:11:43;93984.69;;;10.29;100.00
65832;BME280;52593;42.648;23.332;2023-05-17T03:14:08;93994.91;;;10.26;100.00
65832;BME280;52593;42.648;23.332;2023-05-17T03:16:34;94003.13;;;10.24;100.00
65832;BME280;52593;42.648;23.332;2023-05-17T03:18:59;94000.25;;;10.19;100.00
65832;BME280;52593;42.648;23.332;2023-05-17T03:21:25;94011.16;;;10.24;100.00
65832;BME280;52593;42.648;23.332;2023-05-17T03:23:50;94014.09;;;10.29;100.00
65832;BME280;52593;42.648;23.332;2023-05-17T03:26:15;94016.84;;;10.36;100.00
65832;BME280;52593;42.648;23.332;2023-05-17T03:28:43;94009.31;;;10.46;100.00
65832;BME280;52593;42.648;23.332;2023-05-17T03:31:08;94002.19;;;10.60;100.00
65832;BME280;52593;42.648;23.332;2023-05-17T03:33:33;93996.06;;;10.73;100.00
65832;BME280;52593;42.648;23.332;2023-05-17T03:35:59;93997.16;;;10.85;100.00
65832;BME280;52593;42.648;23.332;2023-05-17T03:38:24;93999.63;;;10.87;100.00
65832;BME280;52593;42.648;23.332;2023-05-17T03:40:50;94003.97;;;10.88;100.00
65832;BME280;52593;42.648;23.332;2023-05-17T03:43:16;94000.50;;;10.94;100.00
65832;BME280;52593;42.648;23.332;2023-05-17T03:45:41;94002.16;;;10.95;100.00
65832;BME280;52593;42.648;23.332;2023-05-17T03:48:07;94002.16;;;10.95;100.00
65832;BME280;52593;42.648;23.332;2023-05-17T03:50:32;93997.03;;;11.00;100.00
65832;BME280;52593;42.648;23.332;2023-05-17T03:52:58;94000.97;;;11.04;100.00
65832;BME280;52593;42.648;23.332;2023-05-17T03:55:23;93999.31;;;11.10;100.00
65832;BME280;52593;42.648;23.332;2023-05-17T03:57:49;94004.47;;;11.12;100.00
65832;BME280;52593;42.648;23.332;2023-05-17T04:00:14;94007.16;;;11.12;100.00
65832;BME280;52593;42.648;23.332;2023-05-17T04:02:45;94006.53;;;11.16;100.00
65832;BME280;52593;42.648;23.332;2023-05-17T04:05:11;94007.41;;;11.23;100.00
65832;BME280;52593;42.648;23.332;2023-05-17T04:07:37;93997.75;;;11.29;100.00
65832;BME280;52593;42.648;23.332;2023-05-17T04:10:03;94004.78;;;11.37;100.00
65832;BME280;52593;42.648;23.332;2023-05-17T04:12:28;94011.81;;;11.45;100.00
65832;BME280;52593;42.648;23.332;2023-05-17T04:14:54;94008.31;;;11.51;100.00
65832;BME280;52593;42.648;23.332;2023-05-17T04:17:19;94008.56;;;11.63;99.89
65832;BME280;52593;42.648;23.332;2023-05-17T04:19:45;94008.56;;;11.76;98.96
65832;BME280;52593;42.648;23.332;2023-05-17T04:22:10;93992.88;;;11.73;98.87
65832;BME280;52593;42.648;23.332;2023-05-17T04:24:36;94000.94;;;11.80;98.64
65832;BME280;52593;42.648;23.332;2023-05-17T04:27:01;94004.66;;;11.78;98.83
65832;BME280;52593;42.648;23.332;2023-05-17T04:29:28;93991.06;;;11.87;98.52
65832;BME280;52593;42.648;23.332;2023-05-17T04:31:54;93996.03;;;11.90;98.61
65832;BME280;52593;42.648;23.332;2023-05-17T04:34:19;93989.44;;;11.92;98.39
65832;BME280;52593;42.648;23.332;2023-05-17T04:36:46;93997.28;;;11.94;98.54
65832;BME280;52593;42.648;23.332;2023-05-17T04:39:11;94000.19;;;11.99;98.46
65832;BME280;52593;42.648;23.332;2023-05-17T04:41:37;93991.31;;;12.05;97.88
65832;BME280;52593;42.648;23.332;2023-05-17T04:44:02;93995.41;;;12.08;97.98
65832;BME280;52593;42.648;23.332;2023-05-17T04:46:28;93992.53;;;12.09;97.78
65832;BME280;52593;42.648;23.332;2023-05-17T04:48:53;93990.88;;;12.22;97.70
65832;BME280;52593;42.648;23.332;2023-05-17T04:51:20;93992.31;;;12.31;97.59
65832;BME280;52593;42.648;23.332;2023-05-17T04:53:45;93993.34;;;12.37;97.08
65832;BME280;52593;42.648;23.332;2023-05-17T04:56:11;93993.53;;;12.42;96.89
65832;BME280;52593;42.648;23.332;2023-05-17T04:58:36;93993.13;;;12.45;95.92
65832;BME280;52593;42.648;23.332;2023-05-17T05:01:02;93995.81;;;12.52;95.36
65832;BME280;52593;42.648;23.332;2023-05-17T05:03:27;93996.63;;;12.52;94.98
65832;BME280;52593;42.648;23.332;2023-05-17T05:05:53;93999.50;;;12.64;93.29
65832;BME280;52593;42.648;23.332;2023-05-17T05:08:18;94009.00;;;12.66;93.09
65832;BME280;52593;42.648;23.332;2023-05-17T05:10:44;94010.44;;;12.76;92.94
65832;BME280;52593;42.648;23.332;2023-05-17T05:13:10;94007.31;;;12.79;92.30
65832;BME280;52593;42.648;23.332;2023-05-17T05:15:35;94011.84;;;12.85;91.68
65832;BME280;52593;42.648;23.332;2023-05-17T05:18:01;94007.69;;;12.89;91.07
65832;BME280;52593;42.648;23.332;2023-05-17T05:20:27;94016.56;;;12.96;90.91
65832;BME280;52593;42.648;23.332;2023-05-17T05:22:52;94007.81;;;13.08;91.20
65832;BME280;52593;42.648;23.332;2023-05-17T05:25:18;94006.59;;;13.17;90.72
65832;BME280;52593;42.648;23.332;2023-05-17T05:27:43;94000.53;;;13.28;88.95
65832;BME280;52593;42.648;23.332;2023-05-17T05:30:09;93996.00;;;13.35;89.16
65832;BME280;52593;42.648;23.332;2023-05-17T05:32:34;94005.22;;;13.46;88.37
65832;BME280;52593;42.648;23.332;2023-05-17T05:35:02;94011.59;;;13.52;88.62
65832;BME280;52593;42.648;23.332;2023-05-17T05:37:28;94011.97;;;13.62;86.51
65832;BME280;52593;42.648;23.332;2023-05-17T05:39:53;94014.16;;;13.79;84.64
65832;BME280;52593;42.648;23.332;2023-05-17T05:42:19;94004.81;;;13.81;84.71
65832;BME280;52593;42.648;23.332;2023-05-17T05:44:44;94008.13;;;13.83;84.06
65832;BME280;52593;42.648;23.332;2023-05-17T05:47:10;94015.31;;;13.89;84.09
65832;BME280;52593;42.648;23.332;2023-05-17T05:49:35;94018.34;;;14.00;84.15
65832;BME280;52593;42.648;23.332;2023-05-17T05:52:00;94021.34;;;14.17;83.14
65832;BME280;52593;42.648;23.332;2023-05-17T05:54:26;94007.44;;;14.20;84.23
65832;BME280;52593;42.648;23.332;2023-05-17T05:56:51;94006.16;;;14.22;82.79
65832;BME280;52593;42.648;23.332;2023-05-17T05:59:17;94014.94;;;14.36;82.46
65832;BME280;52593;42.648;23.332;2023-05-17T06:01:43;94014.25;;;14.48;81.56
65832;BME280;52593;42.648;23.332;2023-05-17T06:04:09;94022.47;;;14.53;81.37
65832;BME280;52593;42.648;23.332;2023-05-17T06:06:34;94026.34;;;14.63;81.74
65832;BME280;52593;42.648;23.332;2023-05-17T06:09:00;94026.75;;;14.67;80.79
65832;BME280;52593;42.648;23.332;2023-05-17T06:11:25;94019.25;;;14.69;81.18
65832;BME280;52593;42.648;23.332;2023-05-17T06:13:50;94028.03;;;14.83;81.52
65832;BME280;52593;42.648;23.332;2023-05-17T06:16:16;94025.44;;;14.95;80.56
65832;BME280;52593;42.648;23.332;2023-05-17T06:18:41;94023.47;;;14.84;81.03
65832;BME280;52593;42.648;23.332;2023-05-17T06:21:07;94032.22;;;14.97;78.92
65832;BME280;52593;42.648;23.332;2023-05-17T06:23:32;94030.75;;;15.02;80.20
65832;BME280;52593;42.648;23.332;2023-05-17T06:25:57;94031.28;;;15.10;79.13
65832;BME280;52593;42.648;23.332;2023-05-17T06:28:23;94038.97;;;15.07;78.50
65832;BME280;52593;42.648;23.332;2023-05-17T06:30:48;94040.25;;;15.41;81.94
65832;BME280;52593;42.648;23.332;2023-05-17T06:33:14;94039.25;;;15.54;80.51
65832;BME280;52593;42.648;23.332;2023-05-17T06:35:39;94037.66;;;15.65;83.31
65832;BME280;52593;42.648;23.332;2023-05-17T06:38:04;94038.84;;;15.69;83.30
65832;BME280;52593;42.648;23.332;2023-05-17T06:40:30;94035.09;;;15.89;84.48
65832;BME280;52593;42.648;23.332;2023-05-17T06:42:55;94033.81;;;15.73;79.88
65832;BME280;52593;42.648;23.332;2023-05-17T06:45:21;94034.13;;;15.83;79.59
65832;BME280;52593;42.648;23.332;2023-05-17T06:47:46;94027.94;;;15.82;80.98
65832;BME280;52593;42.648;23.332;2023-05-17T06:50:12;94029.94;;;15.87;79.12
65832;BME280;52593;42.648;23.332;2023-05-17T06:52:37;94029.47;;;15.90;78.47
65832;BME280;52593;42.648;23.332;2023-05-17T06:55:03;94036.16;;;15.87;78.97
65832;BME280;52593;42.648;23.332;2023-05-17T06:57:28;94030.81;;;15.99;79.47
65832;BME280;52593;42.648;23.332;2023-05-17T06:59:54;94039.06;;;15.86;78.41
65832;BME280;52593;42.648;23.332;2023-05-17T07:02:19;94042.38;;;15.88;77.67
65832;BME280;52593;42.648;23.332;2023-05-17T07:04:45;94035.38;;;15.99;80.71
65832;BME280;52593;42.648;23.332;2023-05-17T07:07:10;94039.75;;;15.81;78.04
65832;BME280;52593;42.648;23.332;2023-05-17T07:09:36;94045.78;;;15.95;79.64
65832;BME280;52593;42.648;23.332;2023-05-17T07:12:03;94050.59;;;15.93;79.67
65832;BME280;52593;42.648;23.332;2023-05-17T07:14:28;94054.50;;;15.97;78.71
65832;BME280;52593;42.648;23.332;2023-05-17T07:16:54;94051.66;;;15.92;79.09
65832;BME280;52593;42.648;23.332;2023-05-17T07:19:19;94048.66;;;16.00;79.71
65832;BME280;52593;42.648;23.332;2023-05-17T07:21:45;94044.81;;;16.08;77.64
65832;BME280;52593;42.648;23.332;2023-05-17T07:24:10;94053.84;;;16.14;78.64
65832;BME280;52593;42.648;23.332;2023-05-17T07:26:36;94061.94;;;16.14;78.65
65832;BME280;52593;42.648;23.332;2023-05-17T07:29:01;94056.81;;;16.24;77.45
65832;BME280;52593;42.648;23.332;2023-05-17T07:31:26;94059.84;;;16.28;77.57
65832;BME280;52593;42.648;23.332;2023-05-17T07:33:52;94056.81;;;16.24;77.35
65832;BME280;52593;42.648;23.332;2023-05-17T07:36:17;94061.28;;;16.30;76.37
65832;BME280;52593;42.648;23.332;2023-05-17T07:38:43;94069.84;;;16.27;77.45
65832;BME280;52593;42.648;23.332;2023-05-17T07:41:08;94061.16;;;16.25;76.45
65832;BME280;52593;42.648;23.332;2023-05-17T07:43:36;94069.25;;;16.37;76.27
65832;BME280;52593;42.648;23.332;2023-05-17T07:46:02;94069.22;;;16.55;77.50
65832;BME280;52593;42.648;23.332;2023-05-17T07:48:28;94065.00;;;16.71;75.53
65832;BME280;52593;42.648;23.332;2023-05-17T07:50:53;94054.41;;;16.58;75.86
65832;BME280;52593;42.648;23.332;2023-05-17T07:53:18;94065.09;;;16.53;75.84
65832;BME280;52593;42.648;23.332;2023-05-17T07:55:44;94065.09;;;16.76;75.09
65832;BME280;52593;42.648;23.332;2023-05-17T07:58:09;94062.88;;;16.62;75.86
65832;BME280;52593;42.648;23.332;2023-05-17T08:00:36;94064.63;;;16.56;76.02
65832;BME280;52593;42.648;23.332;2023-05-17T08:03:01;94064.16;;;16.83;75.13
65832;BME280;52593;42.648;23.332;2023-05-17T08:05:26;94067.34;;;16.68;75.50
65832;BME280;52593;42.648;23.332;2023-05-17T08:07:52;94061.59;;;16.76;74.90
65832;BME280;52593;42.648;23.332;2023-05-17T08:10:17;94073.50;;;16.87;75.48
65832;BME280;52593;42.648;23.332;2023-05-17T08:12:43;94067.81;;;16.76;74.54
65832;BME280;52593;42.648;23.332;2023-05-17T08:15:09;94061.03;;;17.09;74.05
65832;BME280;52593;42.648;23.332;2023-05-17T08:17:34;94052.94;;;17.21;73.90
65832;BME280;52593;42.648;23.332;2023-05-17T08:20:00;94050.56;;;17.25;73.22
65832;BME280;52593;42.648;23.332;2023-05-17T08:22:25;94051.72;;;17.41;73.04
65832;BME280;52593;42.648;23.332;2023-05-17T08:24:51;94053.84;;;17.39;72.79
65832;BME280;52593;42.648;23.332;2023-05-17T08:27:17;94054.72;;;17.56;71.92
65832;BME280;52593;42.648;23.332;2023-05-17T08:29:42;94048.47;;;17.79;71.86
65832;BME280;52593;42.648;23.332;2023-05-17T08:32:08;94048.47;;;17.79;71.01
65832;BME280;52593;42.648;23.332;2023-05-17T08:34:33;94046.31;;;17.81;70.77
65832;BME280;52593;42.648;23.332;2023-05-17T08:36:59;94044.19;;;17.83;70.42
65832;BME280;52593;42.648;23.332;2023-05-17T08:39:24;94039.91;;;17.59;71.53
65832;BME280;52593;42.648;23.332;2023-05-17T08:41:50;94050.72;;;17.71;71.18
65832;BME280;52593;42.648;23.332;2023-05-17T08:44:16;94052.47;;;17.77;70.58
65832;BME280;52593;42.648;23.332;2023-05-17T08:46:42;94045.31;;;17.71;70.76
65832;BME280;52593;42.648;23.332;2023-05-17T08:49:21;94054.03;;;18.02;70.01
65832;BME280;52593;42.648;23.332;2023-05-17T08:51:49;94039.94;;;17.88;70.65
65832;BME280;52593;42.648;23.332;2023-05-17T08:54:17;94036.53;;;17.92;70.72
65832;BME280;52593;42.648;23.332;2023-05-17T08:56:42;94045.34;;;17.88;70.96
65832;BME280;52593;42.648;23.332;2023-05-17T08:59:08;94047.25;;;17.87;69.96
65832;BME280;52593;42.648;23.332;2023-05-17T09:01:39;94043.06;;;17.68;69.89
65832;BME280;52593;42.648;23.332;2023-05-17T09:04:08;94046.97;;;17.60;70.31
65832;BME280;52593;42.648;23.332;2023-05-17T09:06:36;94048.13;;;17.64;70.34
65832;BME280;52593;42.648;23.332;2023-05-17T09:09:04;94040.78;;;17.76;70.02
65832;BME280;52593;42.648;23.332;2023-05-17T09:11:32;94035.34;;;17.88;69.31
65832;BME280;52593;42.648;23.332;2023-05-17T09:14:03;94034.75;;;17.98;68.87
65832;BME280;52593;42.648;23.332;2023-05-17T09:16:33;94034.53;;;17.99;68.85
65832;BME280;52593;42.648;23.332;2023-05-17T09:19:03;94034.94;;;18.08;68.53
65832;BME280;52593;42.648;23.332;2023-05-17T09:21:29;94028.38;;;18.04;68.12
65832;BME280;52593;42.648;23.332;2023-05-17T09:23:56;94030.94;;;18.28;68.54
65832;BME280;52593;42.648;23.332;2023-05-17T09:26:23;94042.28;;;18.25;67.86
65832;BME280;52593;42.648;23.332;2023-05-17T09:28:49;94042.66;;;18.45;67.72
65832;BME280;52593;42.648;23.332;2023-05-17T09:31:17;94035.66;;;18.49;67.67
65832;BME280;52593;42.648;23.332;2023-05-17T09:33:47;94033.53;;;18.51;68.48
65832;BME280;52593;42.648;23.332;2023-05-17T09:36:22;94042.31;;;18.13;69.69
65832;BME280;52593;42.648;23.332;2023-05-17T09:38:55;94036.66;;;18.14;70.00
65832;BME280;52593;42.648;23.332;2023-05-17T09:41:25;94040.41;;;17.96;68.76
65832;BME280;52593;42.648;23.332;2023-05-17T09:43:51;94042.28;;;17.96;70.17
65832;BME280;52593;42.648;23.332;2023-05-17T09:46:18;94052.25;;;18.07;69.58
65832;BME280;52593;42.648;23.332;2023-05-17T09:48:44;94055.50;;;18.21;69.48
65832;BME280;52593;42.648;23.332;2023-05-17T09:51:11;94047.16;;;18.40;68.27
65832;BME280;52593;42.648;23.332;2023-05-17T09:53:36;94053.00;;;18.48;68.05
65832;BME280;52593;42.648;23.332;2023-05-17T09:56:05;94056.66;;;18.42;68.24
65832;BME280;52593;42.648;23.332;2023-05-17T09:58:32;94043.69;;;18.27;68.19
65832;BME280;52593;42.648;23.332;2023-05-17T10:01:02;94036.00;;;18.53;68.12
65832;BME280;52593;42.648;23.332;2023-05-17T10:03:32;94036.63;;;18.77;66.43
65832;BME280;52593;42.648;23.332;2023-05-17T10:06:04;94032.06;;;18.61;66.76
65832;BME280;52593;42.648;23.332;2023-05-17T10:08:30;94031.97;;;18.56;66.96
65832;BME280;52593;42.648;23.332;2023-05-17T10:11:02;94024.97;;;18.26;67.15
65832;BME280;52593;42.648;23.332;2023-05-17T10:13:33;94023.56;;;17.94;67.78
65832;BME280;52593;42.648;23.332;2023-05-17T10:16:00;94028.03;;;18.00;68.29
65832;BME280;52593;42.648;23.332;2023-05-17T10:18:27;94011.25;;;18.15;68.02
65832;BME280;52593;42.648;23.332;2023-05-17T10:20:54;94009.22;;;17.94;69.69
65832;BME280;52593;42.648;23.332;2023-05-17T10:23:20;94007.38;;;17.82;69.63
65832;BME280;52593;42.648;23.332;2023-05-17T10:25:46;94003.78;;;17.65;69.80
65832;BME280;52593;42.648;23.332;2023-05-17T10:28:16;94001.75;;;17.72;70.14
65832;BME280;52593;42.648;23.332;2023-05-17T10:30:42;93989.53;;;17.70;69.66
65832;BME280;52593;42.648;23.332;2023-05-17T10:33:08;93975.00;;;17.59;69.54
65832;BME280;52593;42.648;23.332;2023-05-17T10:35:36;93960.41;;;17.60;69.87
65832;BME280;52593;42.648;23.332;2023-05-17T10:38:02;93956.75;;;17.66;70.39
65832;BME280;52593;42.648;23.332;2023-05-17T10:40:28;93958.84;;;17.64;69.98
65832;BME280;52593;42.648;23.332;2023-05-17T10:42:55;93939.81;;;17.59;70.23
65832;BME280;52593;42.648;23.332;2023-05-17T10:45:23;93932.19;;;17.56;69.27
65832;BME280;52593;42.648;23.332;2023-05-17T10:47:53;93920.81;;;17.54;69.21
65832;BME280;52593;42.648;23.332;2023-05-17T10:50:24;93913.53;;;17.42;69.66
65832;BME280;52593;42.648;23.332;2023-05-17T10:52:50;93910.19;;;17.35;70.55
65832;BME280;52593;42.648;23.332;2023-05-17T10:55:23;93897.06;;;17.44;70.67
65832;BME280;52593;42.648;23.332;2023-05-17T10:58:13;93890.28;;;17.41;71.43
65832;BME280;52593;42.648;23.332;2023-05-17T11:00:47;93893.88;;;17.47;70.91
65832;BME280;52593;42.648;23.332;2023-05-17T11:03:14;93882.34;;;17.52;70.16
65832;BME280;52593;42.648;23.332;2023-05-17T11:05:42;93882.44;;;17.57;70.28
65832;BME280;52593;42.648;23.332;2023-05-17T11:08:16;93883.94;;;17.81;70.17
65832;BME280;52593;42.648;23.332;2023-05-17T11:11:15;93893.13;;;17.80;68.76
65832;BME280;52593;42.648;23.332;2023-05-17T11:16:16;93909.28;;;18.04;68.98
65832;BME280;52593;42.648;23.332;2023-05-17T11:18:48;93913.47;;;17.83;68.85
65832;BME280;52593;42.648;23.332;2023-05-17T11:21:14;93926.72;;;17.96;68.67
65832;BME280;52593;42.648;23.332;2023-05-17T11:23:42;93933.03;;;18.02;67.85
65832;BME280;52593;42.648;23.332;2023-05-17T11:26:20;93932.72;;;17.70;68.90
65832;BME280;52593;42.648;23.332;2023-05-17T11:28:46;93947.25;;;17.52;70.51
65832;BME280;52593;42.648;23.332;2023-05-17T11:31:12;93947.84;;;17.54;71.33
65832;BME280;52593;42.648;23.332;2023-05-17T11:33:40;93957.16;;;17.46;71.22
65832;BME280;52593;42.648;23.332;2023-05-17T11:36:19;93961.16;;;17.43;71.23
65832;BME280;52593;42.648;23.332;2023-05-17T11:39:09;93974.72;;;17.32;72.18
65832;BME280;52593;42.648;23.332;2023-05-17T11:41:37;93979.28;;;17.43;73.03
65832;BME280;52593;42.648;23.332;2023-05-17T11:44:06;93976.53;;;17.55;72.85
65832;BME280;52593;42.648;23.332;2023-05-17T11:46:34;93982.41;;;17.52;73.47
65832;BME280;52593;42.648;23.332;2023-05-17T11:49:00;93983.91;;;17.59;73.35
65832;BME280;52593;42.648;23.332;2023-05-17T11:51:26;93987.00;;;17.51;72.88
65832;BME280;52593;42.648;23.332;2023-05-17T11:53:55;93988.84;;;17.34;72.21
65832;BME280;52593;42.648;23.332;2023-05-17T11:56:22;93981.81;;;17.21;70.93
65832;BME280;52593;42.648;23.332;2023-05-17T11:58:50;93993.81;;;17.01;71.46
65832;BME280;52593;42.648;23.332;2023-05-17T12:01:17;93993.25;;;16.99;71.82
65832;BME280;52593;42.648;23.332;2023-05-17T12:03:42;93987.94;;;17.04;70.38
65832;BME280;52593;42.648;23.332;2023-05-17T12:06:10;93996.50;;;17.13;70.37
65832;BME280;52593;42.648;23.332;2023-05-17T12:08:38;93996.88;;;17.17;69.53
65832;BME280;52593;42.648;23.332;2023-05-17T12:11:05;93984.06;;;17.12;69.42
65832;BME280;52593;42.648;23.332;2023-05-17T12:13:33;93990.75;;;17.21;69.80
65832;BME280;52593;42.648;23.332;2023-05-17T12:16:03;93984.56;;;17.50;69.07
65832;BME280;52593;42.648;23.332;2023-05-17T12:18:37;93982.41;;;17.52;69.04
65832;BME280;52593;42.648;23.332;2023-05-17T12:21:04;93977.53;;;17.65;68.30
65832;BME280;52593;42.648;23.332;2023-05-17T12:23:31;93981.84;;;17.78;68.39
65832;BME280;52593;42.648;23.332;2023-05-17T12:26:06;93977.50;;;17.77;68.25
65832;BME280;52593;42.648;23.332;2023-05-17T12:28:32;93971.75;;;17.74;66.62
65832;BME280;52593;42.648;23.332;2023-05-17T12:30:58;93965.63;;;17.78;67.09
65832;BME280;52593;42.648;23.332;2023-05-17T12:33:28;93968.31;;;17.78;67.71
65832;BME280;52593;42.648;23.332;2023-05-17T12:35:55;93965.50;;;17.73;67.75
65832;BME280;52593;42.648;23.332;2023-05-17T12:38:20;93966.00;;;17.41;68.48
65832;BME280;52593;42.648;23.332;2023-05-17T12:40:46;93963.66;;;17.33;69.39
65832;BME280;52593;42.648;23.332;2023-05-17T12:43:12;93967.63;;;17.42;68.53
65832;BME280;52593;42.648;23.332;2023-05-17T12:45:42;93961.84;;;17.10;69.35
65832;BME280;52593;42.648;23.332;2023-05-17T12:48:07;93971.00;;;17.21;69.88
65832;BME280;52593;42.648;23.332;2023-05-17T12:50:32;93965.00;;;17.31;70.10
65832;BME280;52593;42.648;23.332;2023-05-17T12:52:58;93961.88;;;17.39;70.20
65832;BME280;52593;42.648;23.332;2023-05-17T12:55:23;93958.72;;;17.42;70.12
65832;BME280;52593;42.648;23.332;2023-05-17T12:57:53;93961.69;;;17.28;71.30